Time;durP1;ratioP1;P1;durP2;ratioP2;P2;SDS_P1;SDS_P2;PMS_P1;PMS_P2;Temp;Humidity;BMP_temperature;BMP_pressure;BME280_temperature;BME280_humidity;BME280_pressure;Samples;Min_cycle;Max_cycle;Signal;HPM_P1;HPM_P2
2023/01/11 00:00:20;;;;;;;1.15;0.77;;;17.00;57.40;;;;;;5033531;28;20178;-59
2023/01/11 00:02:47;;;;;;;1.05;0.70;;;17.00;57.50;;;;;;5032517;28;20182;-59
2023/01/11 00:05:12;;;;;;;0.85;0.68;;;17.00;57.50;;;;;;5033126;28;20198;-59
2023/01/11 00:07:39;;;;;;;1.30;0.70;;;17.00;57.50;;;;;;5032986;28;20622;-58
2023/01/11 00:10:06;;;;;;;0.75;0.60;;;17.00;57.50;;;;;;5032843;28;20184;-58
2023/01/11 00:12:31;;;;;;;0.60;0.60;;;17.00;57.50;;;;;;5033237;28;20183;-59
2023/01/11 00:14:57;;;;;;;0.88;0.60;;;17.00;57.50;;;;;;5033340;28;20549;-58
2023/01/11 00:17:22;;;;;;;0.82;0.77;;;17.00;57.60;;;;;;5032517;28;20630;-59
2023/01/11 00:19:48;;;;;;;1.05;0.70;;;16.90;57.50;;;;;;5032827;28;20180;-59
2023/01/11 00:22:13;;;;;;;0.52;0.35;;;16.90;57.50;;;;;;5032436;28;20171;-59
2023/01/11 00:24:39;;;;;;;0.60;0.60;;;16.90;57.60;;;;;;5033061;28;20187;-58
2023/01/11 00:27:04;;;;;;;1.25;0.80;;;16.90;57.60;;;;;;5033066;28;20176;-58
2023/01/11 00:29:30;;;;;;;0.75;0.70;;;16.90;57.50;;;;;;5032376;28;20176;-58
2023/01/11 00:31:56;;;;;;;0.55;0.50;;;16.90;57.60;;;;;;5032883;28;20582;-59
2023/01/11 00:34:21;;;;;;;0.73;0.60;;;16.90;57.50;;;;;;5033036;28;20180;-59
2023/01/11 00:36:47;;;;;;;0.70;0.70;;;16.90;57.50;;;;;;5031981;28;20183;-58
2023/01/11 00:39:12;;;;;;;0.55;0.55;;;16.90;57.60;;;;;;5033042;28;20273;-59
2023/01/11 00:49:56;;;;;;;0.80;0.50;;;16.80;57.60;;;;;;5031985;28;20175;-58
2023/01/11 00:52:21;;;;;;;0.43;0.40;;;16.80;57.60;;;;;;5032224;28;20167;-58
2023/01/11 00:54:47;;;;;;;0.50;0.50;;;16.80;57.60;;;;;;5032393;28;20560;-56
2023/01/11 00:57:12;;;;;;;0.60;0.60;;;16.80;57.70;;;;;;5032383;28;20180;-58
2023/01/11 00:59:38;;;;;;;2.17;0.77;;;16.80;57.70;;;;;;5032346;28;20274;-57
2023/01/11 01:02:04;;;;;;;0.60;0.60;;;16.80;57.70;;;;;;5032607;28;20175;-59
2023/01/11 01:04:29;;;;;;;1.45;0.80;;;16.80;57.70;;;;;;5032168;28;20226;-59
2023/01/11 01:06:55;;;;;;;0.60;0.50;;;16.80;57.70;;;;;;5032516;28;20221;-58
2023/01/11 01:09:20;;;;;;;0.50;0.50;;;16.80;57.70;;;;;;5032707;28;20517;-58
2023/01/11 01:11:46;;;;;;;0.55;0.55;;;16.80;57.70;;;;;;5031712;28;20183;-59
2023/01/11 01:14:28;;;;;;;0.95;0.70;;;16.80;57.70;;;;;;5032499;28;20593;-59
2023/01/11 01:17:05;;;;;;;0.50;0.50;;;16.70;57.70;;;;;;5032430;28;20184;-59
2023/01/11 01:19:32;;;;;;;1.52;0.63;;;16.70;57.70;;;;;;5031671;28;20215;-59
2023/01/11 01:21:58;;;;;;;0.90;0.80;;;16.70;57.70;;;;;;5032359;28;20235;-58
2023/01/11 01:24:23;;;;;;;1.05;0.70;;;16.70;57.80;;;;;;5032510;28;20234;-58
2023/01/11 01:26:49;;;;;;;0.60;0.60;;;16.70;57.80;;;;;;5031796;28;20686;-58
2023/01/11 01:29:15;;;;;;;1.00;0.68;;;16.70;57.80;;;;;;5036599;28;20171;-58
2023/01/11 01:31:41;;;;;;;0.80;0.60;;;16.70;57.90;;;;;;5035915;28;20171;-58
2023/01/11 01:34:08;;;;;;;0.57;0.43;;;16.70;57.90;;;;;;5035550;28;20180;-58
2023/01/11 01:36:33;;;;;;;0.73;0.60;;;16.70;57.80;;;;;;5034831;28;20563;-59
2023/01/11 01:38:59;;;;;;;0.80;0.77;;;16.70;57.90;;;;;;5036151;28;20219;-59
2023/01/11 01:41:25;;;;;;;0.57;0.50;;;16.70;57.90;;;;;;5035359;28;20214;-59
2023/01/11 01:43:55;;;;;;;0.82;0.60;;;16.70;57.90;;;;;;5035930;28;20277;-58
2023/01/11 01:46:22;;;;;;;1.38;0.73;;;16.70;57.90;;;;;;5036232;28;20179;-58
2023/01/11 01:48:50;;;;;;;0.65;0.65;;;16.70;57.90;;;;;;5035111;28;20210;-56
2023/01/11 01:51:19;;;;;;;0.75;0.50;;;16.70;57.90;;;;;;5035983;28;20180;-58
2023/01/11 01:53:45;;;;;;;0.60;0.60;;;16.70;58.00;;;;;;5034935;28;20554;-58
2023/01/11 01:56:32;;;;;;;1.13;0.70;;;16.70;58.00;;;;;;5035717;28;20190;-58
2023/01/11 01:59:02;;;;;;;0.82;0.60;;;16.60;58.00;;;;;;5035875;28;20225;-58
2023/01/11 02:04:23;;;;;;;1.08;0.60;;;16.70;58.00;;;;;;5035756;28;20261;-58
2023/01/11 02:06:50;;;;;;;1.23;0.70;;;16.60;58.00;;;;;;5035517;28;20183;-58
2023/01/11 02:09:44;;;;;;;0.88;0.57;;;16.60;58.00;;;;;;5033696;28;20643;-57
2023/01/11 02:12:10;;;;;;;0.57;0.50;;;16.60;58.00;;;;;;5034837;28;20638;-58
2023/01/11 02:14:36;;;;;;;0.70;0.60;;;16.60;58.10;;;;;;5034484;28;20194;-58
2023/01/11 02:17:01;;;;;;;0.95;0.88;;;16.60;58.10;;;;;;5035343;28;20267;-59
2023/01/11 02:19:48;;;;;;;0.93;0.70;;;16.60;58.10;;;;;;5035301;28;20239;-59
2023/01/11 02:22:47;;;;;;;1.13;0.75;;;16.60;58.10;;;;;;5034837;28;20191;-58
2023/01/11 02:25:38;;;;;;;0.93;0.63;;;16.60;58.20;;;;;;5035294;28;20187;-58
2023/01/11 02:28:27;;;;;;;0.50;0.50;;;16.60;58.20;;;;;;5034406;28;20174;-58
2023/01/11 02:31:11;;;;;;;0.65;0.57;;;16.60;58.20;;;;;;5033000;28;20180;-58
2023/01/11 02:33:56;;;;;;;1.70;0.60;;;16.60;58.20;;;;;;5034794;28;20221;-58
2023/01/11 02:36:44;;;;;;;0.50;0.50;;;16.60;58.20;;;;;;5033447;28;20260;-58
2023/01/11 02:39:18;;;;;;;0.65;0.60;;;16.60;58.20;;;;;;5036179;28;20227;-58
2023/01/11 02:45:01;;;;;;;0.52;0.35;;;16.50;58.30;;;;;;5052880;28;20236;-59
2023/01/11 02:47:58;;;;;;;0.70;0.60;;;16.50;58.30;;;;;;5053991;28;20520;-58
2023/01/11 02:50:23;;;;;;;0.60;0.60;;;16.50;58.40;;;;;;5044608;28;20223;-58
2023/01/11 02:52:51;;;;;;;0.70;0.70;;;16.50;58.40;;;;;;5054689;28;20203;-58
2023/01/11 02:55:20;;;;;;;0.45;0.45;;;16.50;58.40;;;;;;5053695;28;20179;-57
2023/01/11 02:57:45;;;;;;;0.60;0.40;;;16.50;58.50;;;;;;5052335;28;20573;-58
2023/01/11 03:00:11;;;;;;;0.50;0.50;;;16.50;58.40;;;;;;5053335;28;20270;-58
2023/01/11 03:02:37;;;;;;;0.47;0.43;;;16.50;58.50;;;;;;5052844;28;20270;-58
2023/01/11 03:05:12;;;;;;;0.43;0.40;;;16.50;58.50;;;;;;5052785;28;20265;-58
2023/01/11 03:07:47;;;;;;;0.40;0.40;;;16.50;58.60;;;;;;5053290;28;20275;-58
2023/01/11 03:10:18;;;;;;;0.40;0.40;;;16.50;58.50;;;;;;5053263;28;20174;-58
2023/01/11 03:13:06;;;;;;;0.45;0.45;;;16.50;58.50;;;;;;5053412;28;20594;-58
2023/01/11 03:15:40;;;;;;;1.10;0.50;;;16.50;58.50;;;;;;5053021;28;20167;-58
2023/01/11 03:18:14;;;;;;;0.63;0.50;;;16.40;58.50;;;;;;5052720;28;20242;-59
2023/01/11 03:20:52;;;;;;;0.40;0.40;;;16.50;58.60;;;;;;5052574;28;20226;-59
2023/01/11 03:23:23;;;;;;;0.40;0.40;;;16.40;58.50;;;;;;5037355;28;20179;-59
2023/01/11 03:26:12;;;;;;;0.40;0.40;;;16.40;58.60;;;;;;5052085;28;20179;-58
2023/01/11 03:28:50;;;;;;;0.40;0.40;;;16.40;58.50;;;;;;5053852;28;20237;-58
2023/01/11 03:31:20;;;;;;;1.48;0.45;;;16.40;58.50;;;;;;5037966;28;20202;-59
2023/01/11 03:33:49;;;;;;;0.45;0.32;;;16.40;58.50;;;;;;5051762;28;20194;-59
2023/01/11 03:36:20;;;;;;;0.40;0.40;;;16.40;58.60;;;;;;5052929;28;20167;-60
2023/01/11 03:38:56;;;;;;;0.88;0.43;;;16.40;58.60;;;;;;5053628;28;20214;-59
2023/01/11 03:41:24;;;;;;;0.40;0.40;;;16.40;58.60;;;;;;5052006;28;20180;-59
2023/01/11 03:43:50;;;;;;;0.40;0.40;;;16.40;58.60;;;;;;5036065;28;20186;-59
2023/01/11 03:46:25;;;;;;;0.30;0.30;;;16.40;58.60;;;;;;5053064;28;20258;-59
2023/01/11 03:48:57;;;;;;;0.60;0.50;;;16.40;58.60;;;;;;5036107;28;20183;-58
2023/01/11 03:51:27;;;;;;;0.70;0.40;;;16.40;58.60;;;;;;5036509;28;20171;-59
2023/01/11 03:53:55;;;;;;;0.45;0.45;;;16.40;58.60;;;;;;5051503;28;20179;-58
2023/01/11 03:56:23;;;;;;;0.38;0.30;;;16.40;58.60;;;;;;5036155;28;20262;-60
2023/01/11 03:58:49;;;;;;;0.47;0.30;;;16.40;58.60;;;;;;5035520;28;20594;-58
2023/01/11 04:01:14;;;;;;;0.50;0.40;;;16.40;58.60;;;;;;5052656;28;20262;-59
2023/01/11 04:03:40;;;;;;;0.82;0.50;;;16.40;58.50;;;;;;5052062;28;20279;-59
2023/01/11 04:06:05;;;;;;;0.40;0.40;;;16.40;58.60;;;;;;5053351;28;20167;-59
2023/01/11 04:08:31;;;;;;;0.50;0.47;;;16.40;58.60;;;;;;5034728;28;20642;-59
2023/01/11 04:10:57;;;;;;;0.50;0.50;;;16.40;58.60;;;;;;5053136;28;20194;-59
2023/01/11 04:13:22;;;;;;;0.50;0.40;;;16.40;58.60;;;;;;5053246;28;20170;-57
2023/01/11 04:15:48;;;;;;;0.40;0.40;;;16.40;58.70;;;;;;5052156;28;20622;-59
2023/01/11 04:18:13;;;;;;;0.40;0.40;;;16.40;58.70;;;;;;5053053;28;20207;-59
2023/01/11 04:20:39;;;;;;;0.35;0.35;;;16.40;58.70;;;;;;5053261;28;20234;-59
2023/01/11 04:23:05;;;;;;;0.40;0.40;;;16.40;58.70;;;;;;5052519;28;20182;-59
2023/01/11 04:25:30;;;;;;;0.43;0.43;;;16.40;58.70;;;;;;5053127;28;20329;-58
2023/01/11 04:27:56;;;;;;;0.80;0.50;;;16.30;58.70;;;;;;5052989;28;20656;-58
2023/01/11 04:30:22;;;;;;;0.40;0.40;;;16.40;58.70;;;;;;5052142;28;20716;-58
2023/01/11 04:32:47;;;;;;;0.40;0.40;;;16.30;58.80;;;;;;5052840;28;20645;-59
2023/01/11 04:35:13;;;;;;;0.40;0.40;;;16.30;58.70;;;;;;5052628;28;20665;-59
2023/01/11 04:37:38;;;;;;;0.20;0.20;;;16.30;58.70;;;;;;5052278;28;20206;-59
2023/01/11 04:40:04;;;;;;;0.40;0.40;;;16.30;58.80;;;;;;5052730;28;20222;-59
2023/01/11 04:42:30;;;;;;;0.40;0.40;;;16.30;58.80;;;;;;5051955;28;20182;-59
2023/01/11 04:44:55;;;;;;;0.55;0.45;;;16.30;58.80;;;;;;5052895;28;20183;-58
2023/01/11 04:47:21;;;;;;;0.40;0.40;;;16.30;59.50;;;;;;5052955;28;20227;-59
2023/01/11 04:49:47;;;;;;;0.30;0.30;;;16.30;58.80;;;;;;5051592;28;20645;-57
2023/01/11 04:52:13;;;;;;;0.30;0.30;;;16.30;58.80;;;;;;5052832;28;20208;-58
2023/01/11 04:54:39;;;;;;;0.45;0.45;;;16.30;58.80;;;;;;5052337;28;20175;-58
2023/01/11 04:57:05;;;;;;;0.30;0.30;;;16.30;58.90;;;;;;5051924;28;20212;-58
2023/01/11 04:59:30;;;;;;;0.50;0.50;;;16.30;58.80;;;;;;5052547;28;20318;-59
2023/01/11 05:01:56;;;;;;;0.40;0.40;;;16.30;59.60;;;;;;5053154;28;20167;-58
2023/01/11 05:04:21;;;;;;;0.45;0.32;;;16.30;58.90;;;;;;5056142;28;20656;-59
2023/01/11 05:06:47;;;;;;;0.40;0.40;;;16.30;58.90;;;;;;5056596;28;20620;-58
2023/01/11 05:09:13;;;;;;;0.43;0.22;;;16.30;58.90;;;;;;5056609;28;20182;-58
2023/01/11 05:11:39;;;;;;;0.63;0.40;;;16.30;59.00;;;;;;5055659;28;20258;-58
2023/01/11 05:14:04;;;;;;;0.50;0.50;;;16.30;59.00;;;;;;5056464;28;20262;-58
2023/01/11 05:16:30;;;;;;;0.40;0.40;;;16.30;58.90;;;;;;5056768;28;20317;-59
2023/01/11 05:18:57;;;;;;;0.35;0.30;;;16.30;58.90;;;;;;5055933;28;20634;-58
2023/01/11 05:21:24;;;;;;;0.65;0.40;;;16.30;58.90;;;;;;5056207;28;20597;-58
2023/01/11 05:23:50;;;;;;;0.40;0.38;;;16.30;58.90;;;;;;5056180;28;20300;-58
2023/01/11 05:26:17;;;;;;;0.40;0.40;;;16.30;58.80;;;;;;5055679;28;20677;-58
2023/01/11 05:28:43;;;;;;;0.47;0.47;;;16.30;58.90;;;;;;5056202;28;20262;-58
2023/01/11 05:31:09;;;;;;;0.50;0.40;;;16.30;58.80;;;;;;5056173;28;20531;-58
2023/01/11 05:33:34;;;;;;;0.30;0.30;;;16.20;58.80;;;;;;5055201;28;20178;-58
2023/01/11 05:36:07;;;;;;;0.55;0.40;;;16.30;58.90;;;;;;5056184;28;20175;-59
2023/01/11 05:38:33;;;;;;;0.32;0.32;;;16.20;58.80;;;;;;5055251;28;20215;-58
2023/01/11 05:41:01;;;;;;;0.40;0.40;;;16.20;58.80;;;;;;5056064;28;20175;-59
2023/01/11 05:43:27;;;;;;;0.38;0.38;;;16.20;58.90;;;;;;5056278;28;20203;-58
2023/01/11 05:45:52;;;;;;;0.52;0.43;;;16.20;58.90;;;;;;5055169;28;20171;-58
2023/01/11 05:48:18;;;;;;;0.60;0.40;;;16.20;58.90;;;;;;5056094;28;20633;-58
2023/01/11 05:50:48;;;;;;;0.57;0.57;;;16.20;58.90;;;;;;5055563;28;20176;-58
2023/01/11 05:53:14;;;;;;;1.00;0.32;;;16.30;58.90;;;;;;5053951;28;20186;-58
2023/01/11 05:55:50;;;;;;;0.35;0.35;;;16.20;58.90;;;;;;5055467;28;20179;-58
2023/01/11 05:58:15;;;;;;;0.40;0.40;;;16.20;58.90;;;;;;5054613;28;20731;-58
2023/01/11 06:00:41;;;;;;;0.40;0.40;;;16.20;58.90;;;;;;5054636;28;20168;-58
2023/01/11 06:03:06;;;;;;;0.30;0.30;;;16.20;58.90;;;;;;5055792;28;20179;-58
2023/01/11 06:05:33;;;;;;;0.47;0.47;;;16.20;58.90;;;;;;5055340;28;20225;-59
2023/01/11 06:07:58;;;;;;;0.85;0.50;;;16.20;58.90;;;;;;5054883;28;20172;-58
2023/01/11 06:10:24;;;;;;;0.43;0.43;;;16.20;59.00;;;;;;5055410;28;20175;-58
2023/01/11 06:13:25;;;;;;;0.65;0.40;;;16.20;58.90;;;;;;5055266;28;20564;-58
2023/01/11 06:15:39;;;;;;;0.40;0.40;;;16.20;59.00;;;;;;5054297;28;20179;-60
2023/01/11 06:18:04;;;;;;;1.00;0.47;;;16.20;58.90;;;;;;5055354;28;20207;-60
2023/01/11 06:20:30;;;;;;;0.60;0.60;;;16.20;58.90;;;;;;5055025;28;20326;-59
2023/01/11 06:22:55;;;;;;;0.43;0.38;;;16.20;58.90;;;;;;5054284;28;20175;-59
2023/01/11 06:25:21;;;;;;;0.30;0.30;;;16.20;58.90;;;;;;5055526;28;20183;-59
2023/01/11 06:27:46;;;;;;;0.50;0.40;;;16.20;58.90;;;;;;5054545;28;20194;-58
2023/01/11 06:30:12;;;;;;;0.52;0.50;;;16.20;58.90;;;;;;5055113;28;20179;-57
2023/01/11 06:32:37;;;;;;;0.40;0.40;;;16.20;58.90;;;;;;5055049;28;20171;-58
2023/01/11 06:35:03;;;;;;;0.50;0.50;;;16.20;58.90;;;;;;5054396;28;20245;-58
2023/01/11 06:37:29;;;;;;;0.40;0.40;;;16.20;58.90;;;;;;5055054;28;20214;-60
2023/01/11 06:39:54;;;;;;;0.40;0.40;;;16.10;58.90;;;;;;5054898;28;20203;-60
2023/01/11 06:42:20;;;;;;;0.57;0.40;;;16.20;58.90;;;;;;5054257;28;20199;-60
2023/01/11 06:44:45;;;;;;;1.15;0.60;;;16.20;58.90;;;;;;5054797;28;20210;-60
2023/01/11 06:47:11;;;;;;;0.38;0.38;;;16.20;58.90;;;;;;5054953;28;20195;-60
2023/01/11 06:49:36;;;;;;;1.00;0.60;;;16.10;59.50;;;;;;5053800;28;20211;-59
2023/01/11 06:52:02;;;;;;;0.35;0.35;;;16.10;58.90;;;;;;5054737;28;20198;-59
2023/01/11 06:54:28;;;;;;;1.27;0.65;;;16.10;58.90;;;;;;5054907;28;20266;-60
2023/01/11 06:56:53;;;;;;;0.60;0.60;;;16.10;58.90;;;;;;5053608;28;20171;-60
2023/01/11 06:59:19;;;;;;;0.60;0.50;;;16.20;58.90;;;;;;5054467;28;20215;-59
2023/01/11 07:01:44;;;;;;;0.50;0.50;;;16.10;58.90;;;;;;5054231;28;20171;-60
2023/01/11 07:04:10;;;;;;;0.70;0.70;;;16.20;58.90;;;;;;5053724;28;20179;-60
2023/01/11 07:06:35;;;;;;;0.68;0.50;;;16.20;58.90;;;;;;5054208;28;20590;-60
2023/01/11 07:09:01;;;;;;;0.60;0.50;;;16.30;58.90;;;;;;5054652;28;20176;-59
2023/01/11 07:11:26;;;;;;;0.77;0.45;;;16.40;58.80;;;;;;5053780;28;20175;-60
2023/01/11 07:13:52;;;;;;;0.90;0.63;;;16.50;58.80;;;;;;5054025;28;20186;-60
2023/01/11 07:16:18;;;;;;;1.42;0.50;;;16.60;58.60;;;;;;5054365;28;20198;-61
2023/01/11 07:18:43;;;;;;;0.50;0.50;;;16.70;58.50;;;;;;5053169;28;20203;-60
2023/01/11 07:21:09;;;;;;;0.80;0.60;;;16.90;58.40;;;;;;5054015;28;20281;-60
2023/01/11 07:23:34;;;;;;;1.40;0.70;;;17.00;58.20;;;;;;5053806;28;20243;-59
2023/01/11 07:26:00;;;;;;;0.85;0.40;;;17.00;58.00;;;;;;5053070;28;20175;-59
2023/01/11 07:28:27;;;;;;;2.03;0.50;;;17.10;57.90;;;;;;5054056;28;20677;-60
2023/01/11 07:30:52;;;;;;;0.73;0.38;;;17.20;57.70;;;;;;5053768;28;20199;-60
2023/01/11 07:33:18;;;;;;;0.75;0.55;;;17.30;57.60;;;;;;5053373;28;20217;-60
2023/01/11 07:35:43;;;;;;;0.47;0.47;;;17.30;57.50;;;;;;5053461;28;20176;-60
2023/01/11 07:38:10;;;;;;;2.10;0.50;;;17.40;57.50;;;;;;5053286;28;20252;-60
2023/01/11 07:40:36;;;;;;;0.47;0.45;;;17.50;57.40;;;;;;5053746;28;20206;-60
2023/01/11 07:43:10;;;;;;;0.63;0.52;;;17.50;57.20;;;;;;5053972;28;20621;-60
2023/01/11 07:45:37;;;;;;;0.82;0.45;;;17.60;57.20;;;;;;5052863;28;20593;-60
2023/01/11 07:48:03;;;;;;;0.95;0.55;;;17.60;57.10;;;;;;5053789;28;20225;-58
2023/01/11 07:50:29;;;;;;;1.70;0.50;;;17.60;57.00;;;;;;5053918;28;20258;-60
2023/01/11 07:52:54;;;;;;;0.63;0.63;;;17.60;57.00;;;;;;5052767;28;20262;-60
2023/01/11 07:55:20;;;;;;;0.80;0.52;;;17.60;57.10;;;;;;5053487;28;20664;-59
2023/01/11 07:57:45;;;;;;;0.93;0.57;;;17.50;57.10;;;;;;5053129;28;20182;-59
2023/01/11 08:00:11;;;;;;;1.23;0.38;;;17.50;57.30;;;;;;5052718;28;20580;-60
2023/01/11 08:02:37;;;;;;;0.90;0.57;;;17.40;57.30;;;;;;5052934;28;20695;-59
2023/01/11 08:05:02;;;;;;;0.82;0.63;;;17.40;58.00;;;;;;5053966;28;20174;-59
2023/01/11 08:07:28;;;;;;;0.70;0.55;;;17.40;57.40;;;;;;5052866;28;20653;-60
2023/01/11 08:09:53;;;;;;;1.42;0.50;;;17.40;57.50;;;;;;5053171;28;20177;-59
2023/01/11 08:15:04;;;;;;;3.22;0.73;;;17.30;57.70;;;;;;5052550;28;20310;-67
2023/01/11 08:17:29;;;;;;;1.48;0.75;;;17.30;57.60;;;;;;5053008;28;20167;-67
2023/01/11 08:19:55;;;;;;;2.00;0.55;;;17.20;57.70;;;;;;5052627;28;20288;-66
2023/01/11 08:22:20;;;;;;;4.22;0.60;;;17.20;57.70;;;;;;5052550;28;20258;-67
2023/01/11 08:24:46;;;;;;;1.27;0.90;;;17.20;57.70;;;;;;5052729;28;20313;-66
2023/01/11 08:27:12;;;;;;;0.70;0.57;;;17.10;57.80;;;;;;5053051;28;20182;-67
2023/01/11 08:29:38;;;;;;;1.42;0.95;;;17.20;57.90;;;;;;5052045;28;20526;-67
2023/01/11 08:32:04;;;;;;;1.92;0.77;;;17.10;57.90;;;;;;5052858;28;20261;-67
2023/01/11 08:34:30;;;;;;;2.17;0.80;;;17.20;57.90;;;;;;5052453;28;20253;-68
2023/01/11 08:36:56;;;;;;;1.45;0.93;;;17.30;57.90;;;;;;5052093;28;20262;-67
2023/01/11 08:39:22;;;;;;;1.40;0.80;;;17.20;57.90;;;;;;5052931;28;20213;-67
2023/01/11 08:41:47;;;;;;;2.63;0.90;;;17.10;57.90;;;;;;5051953;28;20593;-66
2023/01/11 08:44:15;;;;;;;3.25;0.82;;;17.10;57.90;;;;;;5052723;28;20207;-66
2023/01/11 08:46:41;;;;;;;2.28;0.80;;;17.00;58.00;;;;;;5052661;28;20171;-66
2023/01/11 08:49:10;;;;;;;2.00;0.70;;;17.00;58.00;;;;;;5052230;28;20221;-66
2023/01/11 08:51:37;;;;;;;1.92;0.90;;;17.00;58.10;;;;;;5052636;28;20242;-67
2023/01/11 08:54:03;;;;;;;1.95;0.80;;;17.00;58.10;;;;;;5052723;28;20521;-66
2023/01/11 08:56:29;;;;;;;1.45;1.08;;;17.00;58.20;;;;;;5052009;28;20225;-66
2023/01/11 08:58:54;;;;;;;2.90;0.73;;;17.00;58.20;;;;;;5052195;28;20249;-66
2023/01/11 09:01:20;;;;;;;3.08;1.30;;;17.00;58.10;;;;;;5052921;28;20166;-67
2023/01/11 09:03:45;;;;;;;2.38;0.75;;;17.00;58.10;;;;;;5051866;28;20232;-67
2023/01/11 09:06:11;;;;;;;1.75;0.70;;;17.00;58.10;;;;;;5052745;28;20171;-67
2023/01/11 09:08:36;;;;;;;2.47;0.90;;;17.00;58.10;;;;;;5052374;28;20175;-66
2023/01/11 09:11:52;;;;;;;1.98;0.88;;;17.00;58.10;;;;;;5051945;28;20179;-67
2023/01/11 09:13:47;;;;;;;2.28;0.80;;;16.90;58.10;;;;;;5052209;28;20533;-67
2023/01/11 09:16:13;;;;;;;1.83;0.80;;;16.90;58.20;;;;;;5052464;28;20263;-67
2023/01/11 09:18:38;;;;;;;1.33;0.73;;;16.90;58.30;;;;;;5051443;28;20229;-67
2023/01/11 09:21:04;;;;;;;1.50;0.82;;;16.90;58.30;;;;;;5052470;28;20305;-66
2023/01/11 09:23:29;;;;;;;1.98;1.02;;;16.90;58.30;;;;;;5052507;28;20282;-67
2023/01/11 09:25:55;;;;;;;2.10;0.80;;;16.90;58.30;;;;;;5051371;28;20171;-66
2023/01/11 09:28:20;;;;;;;1.80;0.93;;;16.90;58.20;;;;;;5052310;28;20182;-67
2023/01/11 09:30:46;;;;;;;1.90;0.80;;;17.00;58.20;;;;;;5051470;28;20516;-66
2023/01/11 09:33:11;;;;;;;2.20;0.77;;;16.90;58.20;;;;;;5053390;28;20626;-65
2023/01/11 09:35:41;;;;;;;3.00;1.20;;;16.90;58.30;;;;;;5052019;28;20171;-66
2023/01/11 09:38:06;;;;;;;6.63;1.00;;;16.90;58.30;;;;;;5051639;28;20214;-64
2023/01/11 09:40:44;;;;;;;1.73;0.80;;;16.90;58.50;;;;;;5051845;28;20175;-64
2023/01/11 09:43:11;;;;;;;2.10;0.90;;;16.80;58.60;;;;;;5051386;28;20266;-63
2023/01/11 09:45:38;;;;;;;4.05;1.27;;;16.80;58.60;;;;;;5033424;28;20232;-63
2023/01/11 09:48:22;;;;;;;1.83;0.82;;;16.80;58.80;;;;;;5035215;28;20182;-64
2023/01/11 09:50:48;;;;;;;3.03;1.13;;;16.80;59.00;;;;;;5053463;28;20182;-64
2023/01/11 09:53:26;;;;;;;2.38;0.98;;;16.80;59.00;;;;;;5053175;28;20301;-63
2023/01/11 09:55:53;;;;;;;2.83;0.95;;;16.80;59.10;;;;;;5053441;28;20182;-65
2023/01/11 09:58:27;;;;;;;2.50;1.00;;;16.80;59.10;;;;;;5054526;28;20293;-64
2023/01/11 10:01:19;;;;;;;3.83;1.13;;;16.80;59.10;;;;;;5054867;28;20171;-64
2023/01/11 10:04:31;;;;;;;2.65;1.13;;;16.80;59.10;;;;;;5055378;28;20175;-65
2023/01/11 10:07:13;;;;;;;2.08;1.00;;;16.80;59.20;;;;;;5055082;28;20221;-61
2023/01/11 10:09:40;;;;;;;3.50;1.25;;;16.80;59.20;;;;;;5054825;28;20630;-63
2023/01/11 10:12:20;;;;;;;7.05;1.23;;;16.80;59.30;;;;;;5054114;28;20198;-62
2023/01/11 10:14:56;;;;;;;3.65;1.35;;;16.80;59.30;;;;;;5044498;28;20167;-63
2023/01/11 10:17:41;;;;;;;3.22;1.02;;;16.90;59.30;;;;;;5051211;28;20182;-64
2023/01/11 10:20:27;;;;;;;4.70;1.30;;;16.90;59.20;;;;;;5052181;28;20218;-63
2023/01/11 10:22:59;;;;;;;2.25;1.40;;;17.00;59.10;;;;;;5053468;28;20187;-62
2023/01/11 10:25:32;;;;;;;5.88;1.23;;;17.00;59.10;;;;;;5053955;28;20203;-63
2023/01/11 10:28:00;;;;;;;3.33;1.27;;;17.00;59.00;;;;;;5054604;28;20175;-63
2023/01/11 10:39:38;;;;;;;3.85;1.10;;;17.00;59.00;;;;;;5054087;28;20209;-64
2023/01/11 10:42:20;;;;;;;4.30;1.17;;;17.00;59.00;;;;;;5052746;28;20182;-63
2023/01/11 10:45:02;;;;;;;5.68;1.42;;;17.00;59.10;;;;;;5054487;28;20179;-67
2023/01/11 10:47:35;;;;;;;5.13;1.02;;;17.00;59.10;;;;;;5053680;28;20175;-67
2023/01/11 10:50:24;;;;;;;3.88;1.20;;;17.00;59.30;;;;;;5053085;28;20175;-65
2023/01/11 10:52:54;;;;;;;4.10;1.48;;;17.00;59.40;;;;;;5051296;28;20292;-66
2023/01/11 10:55:29;;;;;;;4.05;1.27;;;17.00;59.50;;;;;;5052987;28;20199;-65
2023/01/11 10:58:22;;;;;;;5.78;1.70;;;17.00;59.30;;;;;;5053284;28;20231;-65
2023/01/11 11:00:57;;;;;;;3.30;1.33;;;17.00;59.30;;;;;;5053388;28;20167;-66
2023/01/11 11:03:32;;;;;;;2.00;1.20;;;17.00;59.30;;;;;;5052775;28;20232;-66
2023/01/11 11:06:16;;;;;;;3.63;1.45;;;17.00;59.90;;;;;;5053391;28;20170;-65
2023/01/11 11:08:50;;;;;;;4.07;1.35;;;17.00;59.40;;;;;;5054385;28;20209;-66
2023/01/11 11:11:34;;;;;;;3.10;1.42;;;17.00;59.40;;;;;;5053652;28;20177;-66
2023/01/11 11:14:11;;;;;;;4.10;1.60;;;17.00;59.40;;;;;;5053436;28;20183;-66
2023/01/11 11:16:57;;;;;;;4.38;1.25;;;17.00;59.30;;;;;;5053875;28;20166;-67
2023/01/11 11:19:24;;;;;;;9.32;1.90;;;17.00;59.20;;;;;;5053347;28;20300;-66
2023/01/11 11:21:51;;;;;;;4.57;1.40;;;17.00;59.30;;;;;;5052726;28;20222;-67
2023/01/11 11:24:32;;;;;;;5.97;1.95;;;17.00;59.30;;;;;;5053554;28;20545;-68
2023/01/11 11:27:08;;;;;;;3.72;1.10;;;17.00;59.40;;;;;;5053937;28;20167;-66
2023/01/11 11:29:40;;;;;;;5.97;1.92;;;17.00;59.40;;;;;;5052917;28;20216;-67
2023/01/11 11:32:08;;;;;;;4.70;1.20;;;17.00;59.30;;;;;;5053579;28;20175;-66
2023/01/11 11:34:34;;;;;;;5.63;1.50;;;17.00;59.20;;;;;;5052721;28;20179;-65
2023/01/11 11:37:00;;;;;;;5.45;1.40;;;17.00;59.20;;;;;;5052736;28;20692;-64
2023/01/11 11:39:28;;;;;;;5.35;1.63;;;17.00;59.20;;;;;;5051843;28;20215;-66
2023/01/11 11:41:55;;;;;;;5.22;1.08;;;17.00;59.10;;;;;;5053298;28;20305;-69
2023/01/11 11:44:25;;;;;;;3.20;1.17;;;17.00;59.20;;;;;;5052994;28;20571;-72
2023/01/11 11:46:58;;;;;;;2.90;1.33;;;17.00;59.20;;;;;;5053579;28;20190;-65
2023/01/11 11:49:24;;;;;;;6.72;1.80;;;17.00;59.20;;;;;;5053908;28;20183;-65
2023/01/11 11:51:49;;;;;;;4.28;1.38;;;17.00;59.20;;;;;;5052673;28;20648;-63
2023/01/11 11:54:19;;;;;;;7.07;1.67;;;17.00;59.20;;;;;;5035830;28;20179;-64
2023/01/11 11:56:45;;;;;;;7.10;1.80;;;17.00;59.10;;;;;;5053521;28;20175;-64
2023/01/11 11:59:13;;;;;;;5.47;1.17;;;17.00;59.10;;;;;;5052668;28;20218;-63
2023/01/11 12:01:45;;;;;;;9.43;2.45;;;17.00;59.10;;;;;;5051768;28;20181;-64
2023/01/11 12:04:19;;;;;;;2.83;1.15;;;17.00;59.10;;;;;;5053243;28;20258;-72
2023/01/11 12:06:48;;;;;;;6.07;1.92;;;17.00;59.20;;;;;;5052465;28;20178;-68
2023/01/11 12:09:27;;;;;;;2.67;1.42;;;17.00;59.10;;;;;;5052185;28;20695;-67
2023/01/11 12:11:52;;;;;;;4.65;2.30;;;17.00;59.00;;;;;;5037211;28;20183;-65
2023/01/11 12:14:28;;;;;;;4.85;1.48;;;17.00;58.90;;;;;;5052363;28;20175;-68
2023/01/11 12:16:54;;;;;;;3.60;1.15;;;17.00;59.00;;;;;;5052814;28;20210;-67
2023/01/11 12:19:34;;;;;;;7.65;1.77;;;17.00;59.00;;;;;;5034985;28;20681;-64
2023/01/11 12:22:16;;;;;;;6.80;1.85;;;17.00;59.10;;;;;;5052426;28;20632;-65
2023/01/11 12:24:41;;;;;;;3.05;1.63;;;17.00;59.10;;;;;;5052393;28;20170;-64
2023/01/11 12:27:25;;;;;;;3.38;1.50;;;17.00;59.10;;;;;;5051941;28;20175;-64
2023/01/11 12:30:11;;;;;;;4.13;1.42;;;17.00;58.90;;;;;;5035138;28;20932;-65
2023/01/11 12:32:49;;;;;;;7.72;1.88;;;17.00;58.90;;;;;;5052528;28;20175;-63
2023/01/11 12:35:34;;;;;;;4.72;1.42;;;17.00;59.00;;;;;;5050721;28;20540;-66
2023/01/11 12:38:06;;;;;;;5.85;1.52;;;17.00;58.90;;;;;;5051521;28;20209;-65
2023/01/11 12:40:51;;;;;;;4.85;1.55;;;17.00;59.00;;;;;;5050721;28;20179;-64
2023/01/11 12:43:37;;;;;;;4.28;1.60;;;17.00;59.10;;;;;;5052793;28;20175;-65
2023/01/11 12:46:24;;;;;;;4.60;1.80;;;16.90;59.10;;;;;;5052760;28;20175;-65
2023/01/11 12:49:07;;;;;;;6.35;1.70;;;16.90;59.10;;;;;;5051515;28;20186;-64
2023/01/11 12:51:41;;;;;;;7.72;2.08;;;16.90;59.20;;;;;;5052052;28;20588;-65
2023/01/11 12:54:33;;;;;;;8.00;1.75;;;16.90;59.20;;;;;;5051393;28;20254;-65
2023/01/11 12:57:25;;;;;;;4.63;1.40;;;16.90;59.20;;;;;;5051895;28;20246;-64
2023/01/11 13:00:04;;;;;;;6.03;1.75;;;16.90;59.20;;;;;;5051966;28;20892;-64
2023/01/11 13:02:51;;;;;;;4.38;1.60;;;16.90;59.20;;;;;;5050435;28;20178;-65
2023/01/11 13:05:36;;;;;;;6.50;2.00;;;16.90;59.10;;;;;;5051254;28;20171;-65
2023/01/11 13:08:29;;;;;;;5.00;1.50;;;17.00;59.10;;;;;;5052498;28;20535;-64
2023/01/11 13:11:03;;;;;;;3.42;1.60;;;17.00;58.80;;;;;;5050360;28;20171;-63
2023/01/11 13:13:48;;;;;;;4.88;1.38;;;17.00;58.80;;;;;;5051422;28;20175;-63
2023/01/11 13:16:23;;;;;;;9.32;2.15;;;17.10;58.70;;;;;;5050704;28;20174;-63
2023/01/11 13:19:13;;;;;;;5.10;1.52;;;17.00;58.70;;;;;;5050790;28;20574;-63
2023/01/11 13:21:43;;;;;;;6.40;1.73;;;17.00;58.80;;;;;;5050717;28;20223;-61
2023/01/11 13:24:11;;;;;;;7.00;1.83;;;17.00;58.90;;;;;;5036841;28;20183;-62
2023/01/11 13:26:38;;;;;;;8.85;1.67;;;17.00;58.80;;;;;;5054997;28;20210;-63
2023/01/11 13:29:16;;;;;;;6.53;1.73;;;17.00;58.90;;;;;;5055292;28;20175;-63